sensor_id;sensor_type;location;lat;lon;timestamp;temperature;humidity
11221;DHT22;8517;53.546;10.104;2023-02-01T00:01:06;8.10;99.90
11221;DHT22;8517;53.546;10.104;2023-02-01T00:03:33;8.20;99.90
11221;DHT22;8517;53.546;10.104;2023-02-01T00:06:01;8.20;99.90
11221;DHT22;8517;53.546;10.104;2023-02-01T00:08:28;8.20;99.90
11221;DHT22;8517;53.546;10.104;2023-02-01T00:10:59;8.10;99.90
11221;DHT22;8517;53.546;10.104;2023-02-01T00:13:28;8.10;99.90
11221;DHT22;8517;53.546;10.104;2023-02-01T00:15:55;8.20;99.90
11221;DHT22;8517;53.546;10.104;2023-02-01T00:18:28;8.10;99.90
11221;DHT22;8517;53.546;10.104;2023-02-01T00:20:55;8.10;99.90
11221;DHT22;8517;53.546;10.104;2023-02-01T00:23:25;8.10;99.90
11221;DHT22;8517;53.546;10.104;2023-02-01T00:25:53;8.10;99.90
11221;DHT22;8517;53.546;10.104;2023-02-01T00:28:20;8.20;99.90
11221;DHT22;8517;53.546;10.104;2023-02-01T00:30:46;8.10;99.90
11221;DHT22;8517;53.546;10.104;2023-02-01T00:33:21;8.10;99.90
11221;DHT22;8517;53.546;10.104;2023-02-01T00:35:48;8.10;99.90
11221;DHT22;8517;53.546;10.104;2023-02-01T00:38:15;8.10;99.90
11221;DHT22;8517;53.546;10.104;2023-02-01T00:40:45;8.10;99.90
11221;DHT22;8517;53.546;10.104;2023-02-01T00:43:13;8.10;99.90
11221;DHT22;8517;53.546;10.104;2023-02-01T00:45:40;8.10;99.90
11221;DHT22;8517;53.546;10.104;2023-02-01T00:48:09;8.10;99.90
11221;DHT22;8517;53.546;10.104;2023-02-01T00:50:41;8.10;99.90
11221;DHT22;8517;53.546;10.104;2023-02-01T00:53:08;8.10;99.90
11221;DHT22;8517;53.546;10.104;2023-02-01T00:55:35;8.10;99.90
11221;DHT22;8517;53.546;10.104;2023-02-01T00:58:04;8.20;99.90
11221;DHT22;8517;53.546;10.104;2023-02-01T01:00:34;8.20;99.90
11221;DHT22;8517;53.546;10.104;2023-02-01T01:03:01;8.20;99.90
11221;DHT22;8517;53.546;10.104;2023-02-01T01:05:28;8.30;99.90
11221;DHT22;8517;53.546;10.104;2023-02-01T01:07:55;8.20;99.90
11221;DHT22;8517;53.546;10.104;2023-02-01T01:10:22;8.20;99.90
11221;DHT22;8517;53.546;10.104;2023-02-01T01:12:49;8.30;99.90
11221;DHT22;8517;53.546;10.104;2023-02-01T01:15:18;8.30;99.90
11221;DHT22;8517;53.546;10.104;2023-02-01T01:17:45;8.30;99.90
11221;DHT22;8517;53.546;10.104;2023-02-01T01:20:12;8.30;99.90
11221;DHT22;8517;53.546;10.104;2023-02-01T01:22:39;8.30;99.90
11221;DHT22;8517;53.546;10.104;2023-02-01T01:25:06;8.40;99.90
11221;DHT22;8517;53.546;10.104;2023-02-01T01:27:33;8.30;99.90
11221;DHT22;8517;53.546;10.104;2023-02-01T01:30:00;8.30;99.90
11221;DHT22;8517;53.546;10.104;2023-02-01T01:32:28;8.40;99.90
11221;DHT22;8517;53.546;10.104;2023-02-01T01:34:55;8.40;99.90
11221;DHT22;8517;53.546;10.104;2023-02-01T01:37:21;8.30;99.90
11221;DHT22;8517;53.546;10.104;2023-02-01T01:39:48;8.40;99.90
11221;DHT22;8517;53.546;10.104;2023-02-01T01:42:15;8.40;99.90
11221;DHT22;8517;53.546;10.104;2023-02-01T01:45:00;8.40;99.90
11221;DHT22;8517;53.546;10.104;2023-02-01T01:47:34;8.40;99.90
11221;DHT22;8517;53.546;10.104;2023-02-01T01:50:04;8.40;99.90
11221;DHT22;8517;53.546;10.104;2023-02-01T01:52:33;8.30;99.90
11221;DHT22;8517;53.546;10.104;2023-02-01T01:55:00;8.40;99.90
11221;DHT22;8517;53.546;10.104;2023-02-01T01:57:31;8.40;99.90
11221;DHT22;8517;53.546;10.104;2023-02-01T02:00:04;8.40;99.90
11221;DHT22;8517;53.546;10.104;2023-02-01T02:02:34;8.40;99.90
11221;DHT22;8517;53.546;10.104;2023-02-01T02:05:03;8.40;99.90
11221;DHT22;8517;53.546;10.104;2023-02-01T02:07:33;8.40;99.90
11221;DHT22;8517;53.546;10.104;2023-02-01T02:10:03;8.50;99.90
11221;DHT22;8517;53.546;10.104;2023-02-01T02:12:31;8.50;99.90
11221;DHT22;8517;53.546;10.104;2023-02-01T02:14:59;8.50;99.90
11221;DHT22;8517;53.546;10.104;2023-02-01T02:17:31;8.50;99.90
11221;DHT22;8517;53.546;10.104;2023-02-01T02:20:30;8.50;99.90
11221;DHT22;8517;53.546;10.104;2023-02-01T02:26:35;8.60;99.90
11221;DHT22;8517;53.546;10.104;2023-02-01T02:35:13;8.60;99.90
11221;DHT22;8517;53.546;10.104;2023-02-01T02:37:46;8.50;99.90
11221;DHT22;8517;53.546;10.104;2023-02-01T02:40:22;8.50;99.90
11221;DHT22;8517;53.546;10.104;2023-02-01T02:43:00;8.50;99.90
11221;DHT22;8517;53.546;10.104;2023-02-01T02:45:49;8.50;99.90
11221;DHT22;8517;53.546;10.104;2023-02-01T02:48:41;8.40;99.90
11221;DHT22;8517;53.546;10.104;2023-02-01T02:51:14;8.40;99.90
11221;DHT22;8517;53.546;10.104;2023-02-01T02:54:02;8.40;99.90
11221;DHT22;8517;53.546;10.104;2023-02-01T02:56:48;8.40;99.90
11221;DHT22;8517;53.546;10.104;2023-02-01T02:59:35;8.40;99.90
11221;DHT22;8517;53.546;10.104;2023-02-01T03:02:20;8.40;99.90
11221;DHT22;8517;53.546;10.104;2023-02-01T03:05:05;8.40;99.90
11221;DHT22;8517;53.546;10.104;2023-02-01T03:08:03;8.40;99.90
11221;DHT22;8517;53.546;10.104;2023-02-01T03:10:38;8.30;99.90
11221;DHT22;8517;53.546;10.104;2023-02-01T03:13:09;8.30;99.90
11221;DHT22;8517;53.546;10.104;2023-02-01T03:15:40;8.20;99.90
11221;DHT22;8517;53.546;10.104;2023-02-01T03:18:13;8.20;99.90
11221;DHT22;8517;53.546;10.104;2023-02-01T03:20:44;8.20;99.90
11221;DHT22;8517;53.546;10.104;2023-02-01T03:23:16;8.20;99.90
11221;DHT22;8517;53.546;10.104;2023-02-01T03:25:44;8.20;99.90
11221;DHT22;8517;53.546;10.104;2023-02-01T03:28:15;8.10;99.90
11221;DHT22;8517;53.546;10.104;2023-02-01T03:30:47;8.10;99.90
11221;DHT22;8517;53.546;10.104;2023-02-01T03:33:17;8.00;99.90
11221;DHT22;8517;53.546;10.104;2023-02-01T03:35:53;8.00;99.90
11221;DHT22;8517;53.546;10.104;2023-02-01T03:38:27;8.00;99.90
11221;DHT22;8517;53.546;10.104;2023-02-01T03:40:59;7.90;99.90
11221;DHT22;8517;53.546;10.104;2023-02-01T03:43:29;7.90;99.90
11221;DHT22;8517;53.546;10.104;2023-02-01T03:46:01;7.80;99.90
11221;DHT22;8517;53.546;10.104;2023-02-01T03:48:30;7.80;99.90
11221;DHT22;8517;53.546;10.104;2023-02-01T03:50:59;7.80;99.90
11221;DHT22;8517;53.546;10.104;2023-02-01T03:53:28;7.70;99.90
11221;DHT22;8517;53.546;10.104;2023-02-01T03:55:56;7.60;99.90
11221;DHT22;8517;53.546;10.104;2023-02-01T03:58:23;7.60;99.90
11221;DHT22;8517;53.546;10.104;2023-02-01T04:00:51;7.60;99.90
11221;DHT22;8517;53.546;10.104;2023-02-01T04:03:19;7.60;99.90
11221;DHT22;8517;53.546;10.104;2023-02-01T04:05:47;7.50;99.90
11221;DHT22;8517;53.546;10.104;2023-02-01T04:08:14;7.50;99.90
11221;DHT22;8517;53.546;10.104;2023-02-01T04:10:42;7.50;99.90
11221;DHT22;8517;53.546;10.104;2023-02-01T04:13:09;7.50;99.90
11221;DHT22;8517;53.546;10.104;2023-02-01T04:15:36;7.50;99.90
11221;DHT22;8517;53.546;10.104;2023-02-01T04:18:03;7.50;99.90
11221;DHT22;8517;53.546;10.104;2023-02-01T04:20:30;7.50;99.90
11221;DHT22;8517;53.546;10.104;2023-02-01T04:22:57;7.50;99.90
11221;DHT22;8517;53.546;10.104;2023-02-01T04:25:23;7.50;99.90
11221;DHT22;8517;53.546;10.104;2023-02-01T04:27:51;7.50;99.90
11221;DHT22;8517;53.546;10.104;2023-02-01T04:30:18;7.50;99.90
11221;DHT22;8517;53.546;10.104;2023-02-01T04:32:45;7.50;99.90
11221;DHT22;8517;53.546;10.104;2023-02-01T04:35:12;7.50;99.90
11221;DHT22;8517;53.546;10.104;2023-02-01T04:37:39;7.50;99.90
11221;DHT22;8517;53.546;10.104;2023-02-01T04:40:06;7.50;99.90
11221;DHT22;8517;53.546;10.104;2023-02-01T04:42:33;7.50;99.90
11221;DHT22;8517;53.546;10.104;2023-02-01T04:45:02;7.50;99.90
11221;DHT22;8517;53.546;10.104;2023-02-01T04:47:29;7.50;99.90
11221;DHT22;8517;53.546;10.104;2023-02-01T04:49:56;7.50;99.90
11221;DHT22;8517;53.546;10.104;2023-02-01T04:52:22;7.50;99.90
11221;DHT22;8517;53.546;10.104;2023-02-01T04:54:49;7.50;99.90
11221;DHT22;8517;53.546;10.104;2023-02-01T04:57:16;7.40;99.90
11221;DHT22;8517;53.546;10.104;2023-02-01T04:59:43;7.40;99.90
11221;DHT22;8517;53.546;10.104;2023-02-01T05:02:11;7.40;99.90
11221;DHT22;8517;53.546;10.104;2023-02-01T05:04:38;7.40;99.90
11221;DHT22;8517;53.546;10.104;2023-02-01T05:07:05;7.30;99.90
11221;DHT22;8517;53.546;10.104;2023-02-01T05:09:32;7.40;99.90
11221;DHT22;8517;53.546;10.104;2023-02-01T05:11:58;7.30;99.90
11221;DHT22;8517;53.546;10.104;2023-02-01T05:14:42;7.30;99.90
11221;DHT22;8517;53.546;10.104;2023-02-01T05:17:11;7.30;99.90
11221;DHT22;8517;53.546;10.104;2023-02-01T05:19:37;7.20;99.90
11221;DHT22;8517;53.546;10.104;2023-02-01T05:22:04;7.20;99.90
11221;DHT22;8517;53.546;10.104;2023-02-01T05:24:31;7.10;99.90
11221;DHT22;8517;53.546;10.104;2023-02-01T05:26:58;7.00;99.90
11221;DHT22;8517;53.546;10.104;2023-02-01T05:29:25;7.00;99.90
11221;DHT22;8517;53.546;10.104;2023-02-01T05:31:51;6.90;99.90
11221;DHT22;8517;53.546;10.104;2023-02-01T05:34:20;6.70;99.90
11221;DHT22;8517;53.546;10.104;2023-02-01T05:36:46;6.60;99.90
11221;DHT22;8517;53.546;10.104;2023-02-01T05:39:13;6.60;99.90
11221;DHT22;8517;53.546;10.104;2023-02-01T05:41:40;6.50;99.90
11221;DHT22;8517;53.546;10.104;2023-02-01T05:44:07;6.40;99.90
11221;DHT22;8517;53.546;10.104;2023-02-01T05:46:34;6.30;99.90
11221;DHT22;8517;53.546;10.104;2023-02-01T05:49:01;6.30;99.90
11221;DHT22;8517;53.546;10.104;2023-02-01T05:51:29;6.20;99.90
11221;DHT22;8517;53.546;10.104;2023-02-01T05:53:56;6.20;99.90
11221;DHT22;8517;53.546;10.104;2023-02-01T05:56:22;6.10;99.90
11221;DHT22;8517;53.546;10.104;2023-02-01T05:58:49;6.10;99.90
11221;DHT22;8517;53.546;10.104;2023-02-01T06:01:16;6.00;99.90
11221;DHT22;8517;53.546;10.104;2023-02-01T06:03:43;6.00;99.90
11221;DHT22;8517;53.546;10.104;2023-02-01T06:06:10;6.00;99.90
11221;DHT22;8517;53.546;10.104;2023-02-01T06:08:38;5.90;99.90
11221;DHT22;8517;53.546;10.104;2023-02-01T06:11:06;5.90;99.90
11221;DHT22;8517;53.546;10.104;2023-02-01T06:13:33;5.90;99.90
11221;DHT22;8517;53.546;10.104;2023-02-01T06:16:00;5.90;99.90
11221;DHT22;8517;53.546;10.104;2023-02-01T06:18:27;5.90;99.90
11221;DHT22;8517;53.546;10.104;2023-02-01T06:21:07;5.80;99.90
11221;DHT22;8517;53.546;10.104;2023-02-01T06:23:42;5.80;99.90
11221;DHT22;8517;53.546;10.104;2023-02-01T06:26:09;5.90;99.90
11221;DHT22;8517;53.546;10.104;2023-02-01T06:28:36;5.90;99.90
11221;DHT22;8517;53.546;10.104;2023-02-01T06:31:34;5.80;99.90
11221;DHT22;8517;53.546;10.104;2023-02-01T06:33:58;5.90;99.90
11221;DHT22;8517;53.546;10.104;2023-02-01T06:36:24;5.90;99.90
11221;DHT22;8517;53.546;10.104;2023-02-01T06:38:53;5.90;99.90
11221;DHT22;8517;53.546;10.104;2023-02-01T06:41:22;5.90;99.90
11221;DHT22;8517;53.546;10.104;2023-02-01T06:43:48;6.00;99.90
11221;DHT22;8517;53.546;10.104;2023-02-01T06:46:15;6.00;99.90
11221;DHT22;8517;53.546;10.104;2023-02-01T06:48:42;6.00;99.90
11221;DHT22;8517;53.546;10.104;2023-02-01T06:51:19;6.10;99.90
11221;DHT22;8517;53.546;10.104;2023-02-01T06:53:47;6.20;99.90
11221;DHT22;8517;53.546;10.104;2023-02-01T06:56:15;6.20;99.90
11221;DHT22;8517;53.546;10.104;2023-02-01T06:58:42;6.20;99.90
11221;DHT22;8517;53.546;10.104;2023-02-01T07:04:23;6.30;99.90
11221;DHT22;8517;53.546;10.104;2023-02-01T07:06:49;6.40;99.90
11221;DHT22;8517;53.546;10.104;2023-02-01T07:09:17;6.40;99.90
11221;DHT22;8517;53.546;10.104;2023-02-01T07:11:45;6.50;99.90
11221;DHT22;8517;53.546;10.104;2023-02-01T07:14:18;6.50;99.90
11221;DHT22;8517;53.546;10.104;2023-02-01T07:16:53;6.50;99.90
11221;DHT22;8517;53.546;10.104;2023-02-01T07:19:30;6.60;99.90
11221;DHT22;8517;53.546;10.104;2023-02-01T07:21:58;6.70;99.90
11221;DHT22;8517;53.546;10.104;2023-02-01T07:24:25;6.60;99.90
11221;DHT22;8517;53.546;10.104;2023-02-01T07:26:53;6.70;99.90
11221;DHT22;8517;53.546;10.104;2023-02-01T07:29:27;6.70;99.90
11221;DHT22;8517;53.546;10.104;2023-02-01T07:31:54;6.80;99.90
11221;DHT22;8517;53.546;10.104;2023-02-01T07:34:21;6.80;99.90
11221;DHT22;8517;53.546;10.104;2023-02-01T07:36:48;6.80;99.90
11221;DHT22;8517;53.546;10.104;2023-02-01T07:39:15;6.80;99.90
11221;DHT22;8517;53.546;10.104;2023-02-01T07:41:42;6.90;99.90
11221;DHT22;8517;53.546;10.104;2023-02-01T07:44:11;6.90;99.90
11221;DHT22;8517;53.546;10.104;2023-02-01T07:46:40;6.90;99.90
11221;DHT22;8517;53.546;10.104;2023-02-01T07:49:08;6.90;99.90
11221;DHT22;8517;53.546;10.104;2023-02-01T07:51:35;6.90;99.90
11221;DHT22;8517;53.546;10.104;2023-02-01T07:54:02;6.80;99.90
11221;DHT22;8517;53.546;10.104;2023-02-01T07:56:29;6.80;99.90
11221;DHT22;8517;53.546;10.104;2023-02-01T07:58:56;6.80;99.90
11221;DHT22;8517;53.546;10.104;2023-02-01T08:01:27;6.70;99.90
11221;DHT22;8517;53.546;10.104;2023-02-01T08:03:56;6.80;99.90
11221;DHT22;8517;53.546;10.104;2023-02-01T08:06:24;6.80;99.90
11221;DHT22;8517;53.546;10.104;2023-02-01T08:08:52;6.80;99.90
11221;DHT22;8517;53.546;10.104;2023-02-01T08:11:20;6.90;99.90
11221;DHT22;8517;53.546;10.104;2023-02-01T08:13:47;7.00;99.90
11221;DHT22;8517;53.546;10.104;2023-02-01T08:16:16;7.10;99.90
11221;DHT22;8517;53.546;10.104;2023-02-01T08:18:58;7.10;99.90
11221;DHT22;8517;53.546;10.104;2023-02-01T08:21:27;7.10;99.90
11221;DHT22;8517;53.546;10.104;2023-02-01T08:24:28;7.20;99.90
11221;DHT22;8517;53.546;10.104;2023-02-01T08:27:12;7.30;99.90
11221;DHT22;8517;53.546;10.104;2023-02-01T08:29:39;7.30;99.90
11221;DHT22;8517;53.546;10.104;2023-02-01T08:32:05;7.40;99.90
11221;DHT22;8517;53.546;10.104;2023-02-01T08:34:35;7.50;99.90
11221;DHT22;8517;53.546;10.104;2023-02-01T08:37:02;7.50;99.90
11221;DHT22;8517;53.546;10.104;2023-02-01T08:39:28;7.60;99.90
11221;DHT22;8517;53.546;10.104;2023-02-01T08:41:55;7.70;99.90
11221;DHT22;8517;53.546;10.104;2023-02-01T08:44:39;7.70;99.90
11221;DHT22;8517;53.546;10.104;2023-02-01T08:47:06;7.80;99.90
11221;DHT22;8517;53.546;10.104;2023-02-01T08:49:34;7.90;99.90
11221;DHT22;8517;53.546;10.104;2023-02-01T08:52:01;8.00;99.90
11221;DHT22;8517;53.546;10.104;2023-02-01T08:54:28;8.00;99.90
11221;DHT22;8517;53.546;10.104;2023-02-01T08:56:55;8.00;99.90
11221;DHT22;8517;53.546;10.104;2023-02-01T08:59:25;8.10;99.90
11221;DHT22;8517;53.546;10.104;2023-02-01T09:01:51;8.10;99.90
11221;DHT22;8517;53.546;10.104;2023-02-01T09:04:20;8.10;99.90
11221;DHT22;8517;53.546;10.104;2023-02-01T09:06:48;8.10;99.90
11221;DHT22;8517;53.546;10.104;2023-02-01T09:09:18;8.10;99.90
11221;DHT22;8517;53.546;10.104;2023-02-01T09:11:45;8.20;99.90
11221;DHT22;8517;53.546;10.104;2023-02-01T09:14:12;8.20;99.90
11221;DHT22;8517;53.546;10.104;2023-02-01T09:16:39;8.30;99.90
11221;DHT22;8517;53.546;10.104;2023-02-01T09:19:06;8.40;99.90
11221;DHT22;8517;53.546;10.104;2023-02-01T09:21:33;8.40;99.90
11221;DHT22;8517;53.546;10.104;2023-02-01T09:24:01;8.50;99.90
11221;DHT22;8517;53.546;10.104;2023-02-01T09:26:29;8.60;99.90
11221;DHT22;8517;53.546;10.104;2023-02-01T09:28:56;8.60;99.90
11221;DHT22;8517;53.546;10.104;2023-02-01T09:31:23;8.60;99.90
11221;DHT22;8517;53.546;10.104;2023-02-01T09:33:50;8.70;99.90
11221;DHT22;8517;53.546;10.104;2023-02-01T09:36:17;8.70;99.90
11221;DHT22;8517;53.546;10.104;2023-02-01T09:38:45;8.80;99.90
11221;DHT22;8517;53.546;10.104;2023-02-01T09:41:26;8.90;99.90
11221;DHT22;8517;53.546;10.104;2023-02-01T09:44:03;8.90;99.90
11221;DHT22;8517;53.546;10.104;2023-02-01T09:46:33;8.90;99.90
11221;DHT22;8517;53.546;10.104;2023-02-01T09:49:19;9.00;99.90
11221;DHT22;8517;53.546;10.104;2023-02-01T09:51:49;9.00;99.90
11221;DHT22;8517;53.546;10.104;2023-02-01T09:54:19;9.10;99.90
11221;DHT22;8517;53.546;10.104;2023-02-01T09:56:49;9.10;99.90
11221;DHT22;8517;53.546;10.104;2023-02-01T09:59:28;9.10;99.90
11221;DHT22;8517;53.546;10.104;2023-02-01T10:01:57;9.20;99.90
11221;DHT22;8517;53.546;10.104;2023-02-01T10:04:25;9.20;99.90
11221;DHT22;8517;53.546;10.104;2023-02-01T10:07:07;9.20;99.90
11221;DHT22;8517;53.546;10.104;2023-02-01T10:09:56;9.30;99.90
11221;DHT22;8517;53.546;10.104;2023-02-01T10:12:56;9.30;99.90
11221;DHT22;8517;53.546;10.104;2023-02-01T10:15:43;9.40;99.90
11221;DHT22;8517;53.546;10.104;2023-02-01T10:18:37;9.50;99.90
11221;DHT22;8517;53.546;10.104;2023-02-01T10:21:16;9.50;99.90
11221;DHT22;8517;53.546;10.104;2023-02-01T10:24:13;9.60;99.90
11221;DHT22;8517;53.546;10.104;2023-02-01T10:26:51;9.60;99.90
11221;DHT22;8517;53.546;10.104;2023-02-01T10:29:26;9.70;99.90
11221;DHT22;8517;53.546;10.104;2023-02-01T10:31:54;9.70;99.90
11221;DHT22;8517;53.546;10.104;2023-02-01T10:34:24;9.70;99.90
11221;DHT22;8517;53.546;10.104;2023-02-01T10:36:55;9.70;99.90
11221;DHT22;8517;53.546;10.104;2023-02-01T10:39:22;9.70;99.90
11221;DHT22;8517;53.546;10.104;2023-02-01T10:41:49;9.70;99.90
11221;DHT22;8517;53.546;10.104;2023-02-01T10:44:19;9.60;99.90
11221;DHT22;8517;53.546;10.104;2023-02-01T10:46:53;9.60;99.90
11221;DHT22;8517;53.546;10.104;2023-02-01T10:49:33;9.50;99.90
11221;DHT22;8517;53.546;10.104;2023-02-01T10:52:05;9.50;99.90
11221;DHT22;8517;53.546;10.104;2023-02-01T10:54:38;9.40;99.90
11221;DHT22;8517;53.546;10.104;2023-02-01T10:57:24;9.30;99.90
11221;DHT22;8517;53.546;10.104;2023-02-01T10:59:54;9.20;99.90
11221;DHT22;8517;53.546;10.104;2023-02-01T11:02:29;9.10;99.90
11221;DHT22;8517;53.546;10.104;2023-02-01T11:05:00;9.10;99.90
11221;DHT22;8517;53.546;10.104;2023-02-01T11:07:31;9.00;99.90
11221;DHT22;8517;53.546;10.104;2023-02-01T11:09:59;8.90;99.90
11221;DHT22;8517;53.546;10.104;2023-02-01T11:12:29;8.90;99.90
11221;DHT22;8517;53.546;10.104;2023-02-01T11:15:03;8.80;99.90
11221;DHT22;8517;53.546;10.104;2023-02-01T11:17:43;8.70;99.90
11221;DHT22;8517;53.546;10.104;2023-02-01T11:20:16;8.70;99.90
11221;DHT22;8517;53.546;10.104;2023-02-01T11:22:46;8.70;99.90
11221;DHT22;8517;53.546;10.104;2023-02-01T11:25:15;8.70;99.90
11221;DHT22;8517;53.546;10.104;2023-02-01T11:27:56;8.60;99.90
11221;DHT22;8517;53.546;10.104;2023-02-01T11:30:31;8.60;99.90
11221;DHT22;8517;53.546;10.104;2023-02-01T11:33:01;8.70;99.90
11221;DHT22;8517;53.546;10.104;2023-02-01T11:35:30;8.70;99.90
11221;DHT22;8517;53.546;10.104;2023-02-01T11:38:00;8.70;99.90
11221;DHT22;8517;53.546;10.104;2023-02-01T11:40:33;8.70;99.90
11221;DHT22;8517;53.546;10.104;2023-02-01T11:43:08;8.70;99.90
11221;DHT22;8517;53.546;10.104;2023-02-01T11:45:36;8.80;99.90
11221;DHT22;8517;53.546;10.104;2023-02-01T11:48:09;8.70;99.90
11221;DHT22;8517;53.546;10.104;2023-02-01T11:50:40;8.80;99.90
11221;DHT22;8517;53.546;10.104;2023-02-01T11:53:32;8.80;99.90
11221;DHT22;8517;53.546;10.104;2023-02-01T11:56:09;8.80;99.90
11221;DHT22;8517;53.546;10.104;2023-02-01T11:59:04;8.80;99.90
11221;DHT22;8517;53.546;10.104;2023-02-01T12:01:49;8.80;99.90
11221;DHT22;8517;53.546;10.104;2023-02-01T12:04:38;8.80;99.90
11221;DHT22;8517;53.546;10.104;2023-02-01T12:07:13;8.70;99.90
11221;DHT22;8517;53.546;10.104;2023-02-01T12:09:53;8.80;99.90
11221;DHT22;8517;53.546;10.104;2023-02-01T12:12:25;8.70;99.90
11221;DHT22;8517;53.546;10.104;2023-02-01T12:21:21;8.60;99.90
11221;DHT22;8517;53.546;10.104;2023-02-01T12:24:02;8.50;99.90
11221;DHT22;8517;53.546;10.104;2023-02-01T12:26:46;8.50;99.90
11221;DHT22;8517;53.546;10.104;2023-02-01T12:29:29;8.50;99.90
11221;DHT22;8517;53.546;10.104;2023-02-01T12:35:25;8.30;99.90
11221;DHT22;8517;53.546;10.104;2023-02-01T12:38:12;8.30;99.90
11221;DHT22;8517;53.546;10.104;2023-02-01T12:40:56;8.20;99.90
11221;DHT22;8517;53.546;10.104;2023-02-01T12:43:54;8.20;99.90
11221;DHT22;8517;53.546;10.104;2023-02-01T12:46:39;8.10;99.90
11221;DHT22;8517;53.546;10.104;2023-02-01T12:49:11;8.00;99.90
11221;DHT22;8517;53.546;10.104;2023-02-01T12:51:44;7.90;99.90
11221;DHT22;8517;53.546;10.104;2023-02-01T12:54:18;7.80;99.90
11221;DHT22;8517;53.546;10.104;2023-02-01T12:56:48;7.70;99.90
11221;DHT22;8517;53.546;10.104;2023-02-01T12:59:21;7.70;99.90
11221;DHT22;8517;53.546;10.104;2023-02-01T13:01:54;7.60;99.90
11221;DHT22;8517;53.546;10.104;2023-02-01T13:04:28;7.50;99.90
11221;DHT22;8517;53.546;10.104;2023-02-01T13:07:01;7.50;99.90
11221;DHT22;8517;53.546;10.104;2023-02-01T13:09:36;7.40;99.90
11221;DHT22;8517;53.546;10.104;2023-02-01T13:12:32;7.40;99.90
11221;DHT22;8517;53.546;10.104;2023-02-01T13:15:09;7.30;99.90
11221;DHT22;8517;53.546;10.104;2023-02-01T13:17:39;7.30;99.90
11221;DHT22;8517;53.546;10.104;2023-02-01T13:20:13;7.30;99.90
11221;DHT22;8517;53.546;10.104;2023-02-01T13:22:45;7.30;99.90
11221;DHT22;8517;53.546;10.104;2023-02-01T13:25:15;7.30;99.90
11221;DHT22;8517;53.546;10.104;2023-02-01T13:27:43;7.20;99.90
11221;DHT22;8517;53.546;10.104;2023-02-01T13:30:17;7.30;99.90
11221;DHT22;8517;53.546;10.104;2023-02-01T13:33:14;7.40;99.90
11221;DHT22;8517;53.546;10.104;2023-02-01T13:35:56;7.50;99.90
11221;DHT22;8517;53.546;10.104;2023-02-01T13:41:42;7.90;99.90
11221;DHT22;8517;53.546;10.104;2023-02-01T13:44:11;8.10;99.90
11221;DHT22;8517;53.546;10.104;2023-02-01T13:46:43;8.20;99.90
11221;DHT22;8517;53.546;10.104;2023-02-01T13:49:26;8.30;99.90
11221;DHT22;8517;53.546;10.104;2023-02-01T13:51:55;8.30;99.90
11221;DHT22;8517;53.546;10.104;2023-02-01T13:54:28;8.30;99.90
11221;DHT22;8517;53.546;10.104;2023-02-01T13:56:56;8.30;99.90
11221;DHT22;8517;53.546;10.104;2023-02-01T13:59:52;8.30;99.90
11221;DHT22;8517;53.546;10.104;2023-02-01T14:06:14;8.30;99.90
11221;DHT22;8517;53.546;10.104;2023-02-01T14:11:35;8.30;99.90
11221;DHT22;8517;53.546;10.104;2023-02-01T14:17:36;8.20;99.90
11221;DHT22;8517;53.546;10.104;2023-02-01T14:23:26;8.10;99.90
11221;DHT22;8517;53.546;10.104;2023-02-01T14:26:09;8.00;99.90
11221;DHT22;8517;53.546;10.104;2023-02-01T14:28:41;8.00;99.90
11221;DHT22;8517;53.546;10.104;2023-02-01T14:31:25;8.00;99.90
11221;DHT22;8517;53.546;10.104;2023-02-01T14:33:57;7.90;99.90
11221;DHT22;8517;53.546;10.104;2023-02-01T14:36:25;8.00;99.90
11221;DHT22;8517;53.546;10.104;2023-02-01T14:38:53;7.90;99.90
11221;DHT22;8517;53.546;10.104;2023-02-01T14:41:30;7.90;99.90
11221;DHT22;8517;53.546;10.104;2023-02-01T14:44:22;7.90;99.90
11221;DHT22;8517;53.546;10.104;2023-02-01T14:47:27;7.90;99.90
11221;DHT22;8517;53.546;10.104;2023-02-01T14:49:58;7.80;99.90
11221;DHT22;8517;53.546;10.104;2023-02-01T14:52:31;7.80;99.90
11221;DHT22;8517;53.546;10.104;2023-02-01T14:55:06;7.80;99.90
11221;DHT22;8517;53.546;10.104;2023-02-01T14:57:37;7.70;99.90
11221;DHT22;8517;53.546;10.104;2023-02-01T15:00:14;7.70;99.90
11221;DHT22;8517;53.546;10.104;2023-02-01T15:02:43;7.70;99.90
11221;DHT22;8517;53.546;10.104;2023-02-01T15:05:27;7.70;99.90
11221;DHT22;8517;53.546;10.104;2023-02-01T15:07:58;7.60;99.90
11221;DHT22;8517;53.546;10.104;2023-02-01T15:10:30;7.60;99.90
11221;DHT22;8517;53.546;10.104;2023-02-01T15:12:57;7.60;99.90
11221;DHT22;8517;53.546;10.104;2023-02-01T15:15:24;7.60;99.90
11221;DHT22;8517;53.546;10.104;2023-02-01T15:17:53;7.60;99.90
11221;DHT22;8517;53.546;10.104;2023-02-01T15:20:22;7.60;99.90
11221;DHT22;8517;53.546;10.104;2023-02-01T15:22:54;7.70;99.90
11221;DHT22;8517;53.546;10.104;2023-02-01T15:25:22;7.60;99.90
11221;DHT22;8517;53.546;10.104;2023-02-01T15:27:51;7.60;99.90
11221;DHT22;8517;53.546;10.104;2023-02-01T15:30:20;7.60;99.90
11221;DHT22;8517;53.546;10.104;2023-02-01T15:32:48;7.60;99.90
11221;DHT22;8517;53.546;10.104;2023-02-01T15:35:38;7.60;99.90
11221;DHT22;8517;53.546;10.104;2023-02-01T15:38:34;7.60;99.90
11221;DHT22;8517;53.546;10.104;2023-02-01T15:41:30;7.60;99.90
11221;DHT22;8517;53.546;10.104;2023-02-01T15:44:20;7.60;99.90
11221;DHT22;8517;53.546;10.104;2023-02-01T15:46:49;7.50;99.90
11221;DHT22;8517;53.546;10.104;2023-02-01T15:49:20;7.50;99.90
11221;DHT22;8517;53.546;10.104;2023-02-01T15:51:47;7.50;99.90
11221;DHT22;8517;53.546;10.104;2023-02-01T15:54:18;7.40;99.90
11221;DHT22;8517;53.546;10.104;2023-02-01T15:56:50;7.40;99.90
11221;DHT22;8517;53.546;10.104;2023-02-01T15:59:21;7.40;99.90
11221;DHT22;8517;53.546;10.104;2023-02-01T16:01:50;7.40;99.90
11221;DHT22;8517;53.546;10.104;2023-02-01T16:04:21;7.40;99.90
11221;DHT22;8517;53.546;10.104;2023-02-01T16:06:50;7.40;99.90
11221;DHT22;8517;53.546;10.104;2023-02-01T16:09:38;7.40;99.90
11221;DHT22;8517;53.546;10.104;2023-02-01T16:12:30;7.40;99.90
11221;DHT22;8517;53.546;10.104;2023-02-01T16:14:58;7.40;99.90
11221;DHT22;8517;53.546;10.104;2023-02-01T16:17:25;7.30;99.90
11221;DHT22;8517;53.546;10.104;2023-02-01T16:19:52;7.30;99.90
11221;DHT22;8517;53.546;10.104;2023-02-01T16:22:24;7.30;99.90
11221;DHT22;8517;53.546;10.104;2023-02-01T16:24:51;7.40;99.90
11221;DHT22;8517;53.546;10.104;2023-02-01T16:27:18;7.40;99.90
11221;DHT22;8517;53.546;10.104;2023-02-01T16:29:48;7.40;99.90
11221;DHT22;8517;53.546;10.104;2023-02-01T16:32:19;7.40;99.90
11221;DHT22;8517;53.546;10.104;2023-02-01T16:34:47;7.40;99.90
11221;DHT22;8517;53.546;10.104;2023-02-01T16:37:16;7.40;99.90
11221;DHT22;8517;53.546;10.104;2023-02-01T16:39:44;7.50;99.90
11221;DHT22;8517;53.546;10.104;2023-02-01T16:42:13;7.50;99.90
11221;DHT22;8517;53.546;10.104;2023-02-01T16:44:40;7.50;99.90
11221;DHT22;8517;53.546;10.104;2023-02-01T16:47:12;7.50;99.90
11221;DHT22;8517;53.546;10.104;2023-02-01T16:49:43;7.50;99.90
11221;DHT22;8517;53.546;10.104;2023-02-01T16:52:14;7.50;99.90
11221;DHT22;8517;53.546;10.104;2023-02-01T16:54:42;7.50;99.90